Flight Track Log - Related Links

Times and Time Zones

All times are in EDT time to prevent confusion due to time zone crossing. See the EJA951 flight status page for this flight to view local times or setup timezone preferences in your user account.

Time Position Orientation Groundspeed Altitude Reporting Facility
EDT Latitude Longitude Course Direction KTS MPH feet Rate Location/Type
Tue 07:43:53 PM 35.3789 -97.6122 233° Southwest 159 183 2,200  Level Fort Worth Center
Tue 07:44:53 PM 35.3433 -97.6706 233° Southwest 210 242 5,900 3,421 Climbing Fort Worth Center
Tue 07:45:54 PM 35.3017 -97.7036 213° Southwest 203 234 9,100 2,852 Climbing Fort Worth Center
Tue 07:46:55 PM 35.2536 -97.6575 142° Southeast 229 264 11,700 2,727 Climbing Fort Worth Center
Tue 07:47:55 PM 35.2433 -97.5761 99° East 256 295 14,600 1,636 Climbing Fort Worth Center
Tue 07:48:56 PM 35.2769 -97.4872 65° Northeast 315 362 15,000 205 Climbing Fort Worth Center
Tue 07:51:20 PM 35.3842 -97.2364 62° Northeast 376 433 15,300 647 Climbing Kansas City Center
Tue 07:52:20 PM 35.4336 -97.1222 62° Northeast 384 442 17,200 1,736 Climbing Kansas City Center
Tue 07:53:21 PM 35.4831 -97.0061 62° Northeast 386 444 18,800 1,869 Climbing Kansas City Center
Tue 07:54:22 PM 35.5525 -96.8717 58° Northeast 389 448 21,000 1,790 Climbing Kansas City Center
Tue 07:55:25 PM 35.6200 -96.7631 53° Northeast 395 455 22,500 1,429 Climbing Kansas City Center
Tue 07:56:28 PM 35.6875 -96.6492 54° Northeast 403 464 24,000 1,440 Climbing Kansas City Center
Tue 07:57:30 PM 35.7564 -96.5331 54° Northeast 413 475 25,500 1,463 Climbing Kansas City Center
Tue 07:58:31 PM 35.8239 -96.4200 54° Northeast 414 476 27,000 1,438 Climbing Kansas City Center
Tue 07:59:31 PM 35.8906 -96.3114 53° Northeast 406 467 28,400 1,500 Climbing Kansas City Center
Tue 08:00:35 PM 35.9706 -96.1739 54° Northeast 408 470 30,100 1,440 Climbing Kansas City Center
Tue 08:01:36 PM 36.0417 -96.0517 54° Northeast 432 497 31,400 1,268 Climbing Kansas City Center
Tue 08:02:38 PM 36.1156 -95.9256 54° Northeast 453 521 32,700 1,279 Climbing Kansas City Center
Tue 08:03:38 PM 36.1914 -95.7947 54° Northeast 465 535 34,000 1,258 Climbing Kansas City Center
Tue 08:04:42 PM 36.2600 -95.6567 58° Northeast 476 548 35,300 1,248 Climbing Kansas City Center
Tue 08:05:43 PM 36.3294 -95.5122 59° Northeast 485 558 36,600 1,122 Climbing Kansas City Center
Tue 08:06:45 PM 36.4000 -95.3619 60° Northeast 495 570 37,600 1,180 Climbing Kansas City Center
Tue 08:07:45 PM 36.4725 -95.2133 59° Northeast 502 578 39,000 1,488 Climbing Kansas City Center
Tue 08:08:46 PM 36.5539 -95.0444 59° Northeast 503 579 40,600 968 Climbing Kansas City Center
Tue 08:09:49 PM 36.6242 -94.8967 59° Northeast 501 577 41,000 192 Climbing Kansas City Center
Tue 08:10:51 PM 36.6947 -94.7464 60° Northeast 501 577 41,000  Level Kansas City Center
Tue 08:11:51 PM 36.7658 -94.5956 59° Northeast 503 579 41,000  Level Kansas City Center
Tue 08:12:55 PM 36.8547 -94.4169 58° Northeast 505 581 41,000  Level Kansas City Center
Tue 08:13:55 PM 36.9664 -94.3136 36° Northeast 499 574 41,000  Level Kansas City Center
Tue 08:14:58 PM 37.0769 -94.2069 38° Northeast 500 575 41,000  Level Kansas City Center
Tue 08:15:58 PM 37.1872 -94.0983 38° Northeast 504 580 41,000  Level Kansas City Center
Tue 08:16:59 PM 37.3081 -93.9783 38° Northeast 507 583 41,000  Level Kansas City Center
Tue 08:18:03 PM 37.4194 -93.8678 38° Northeast 509 586 41,000  Level Kansas City Center
Tue 08:19:03 PM 37.5300 -93.7575 38° Northeast 507 583 41,000  Level Kansas City Center
Tue 08:20:04 PM 37.6403 -93.6469 38° Northeast 505 581 41,000  Level Kansas City Center
Tue 08:21:07 PM 37.7489 -93.5372 39° Northeast 502 578 41,000  Level Kansas City Center
Tue 08:22:08 PM 37.8592 -93.4264 38° Northeast 501 577 41,000  Level Kansas City Center
Tue 08:23:10 PM 37.9681 -93.3158 39° Northeast 500 575 41,000  Level Kansas City Center
Tue 08:24:12 PM 38.0764 -93.2064 38° Northeast 497 572 41,000  Level Kansas City Center
Tue 08:25:12 PM 38.1853 -93.0950 39° Northeast 497 572 41,000  Level Kansas City Center
Tue 08:26:16 PM 38.2958 -92.9828 39° Northeast 501 577 41,000  Level Kansas City Center
Tue 08:27:16 PM 38.4247 -92.8500 39° Northeast 495 570 41,000  Level Kansas City Center
Tue 08:28:16 PM 38.5314 -92.7372 40° Northeast 493 567 41,000  Level Kansas City Center
Tue 08:29:20 PM 38.6392 -92.6256 39° Northeast 494 568 41,000  Level Kansas City Center
Tue 08:30:20 PM 38.7475 -92.5128 39° Northeast 496 571 41,000  Level Kansas City Center
Tue 08:31:24 PM 38.8558 -92.4003 39° Northeast 497 572 41,000  Level Kansas City Center
Tue 08:32:22 PM 38.9636 -92.2858 40° Northeast 497 572 41,000  Level Kansas City Center
Tue 08:33:26 PM 39.0719 -92.1708 39° Northeast 501 577 41,000  Level Kansas City Center
Tue 08:34:26 PM 39.1669 -92.0397 47° Northeast 506 582 41,000  Level Kansas City Center
Tue 08:35:28 PM 39.2442 -91.8994 55° Northeast 504 580 41,000 -145 Level Kansas City Center
Tue 08:36:30 PM 39.3433 -91.7297 53° Northeast 502 578 40,700 -878 Descending Kansas City Center
Tue 08:37:31 PM 39.4367 -91.5886 49° Northeast 504 580 39,200 -1,645 Descending Kansas City Center
Tue 08:38:34 PM 39.5311 -91.4569 47° Northeast 514 592 37,300 -2,000 Descending Kansas City Center
Tue 08:39:34 PM 39.6328 -91.3142 47° Northeast 515 593 35,100 -1,561 Descending Kansas City Center
Tue 08:40:37 PM 39.7300 -91.1767 47° Northeast 516 594 34,100 -1,561 Descending Kansas City Center
Tue 08:41:37 PM 39.8356 -91.0253 48° Northeast 512 589 31,900 -1,537 Descending Kansas City Center
Tue 08:42:38 PM 39.9244 -90.9000 47° Northeast 517 595 31,000 -432 Descending Kansas City Center
Tue 08:43:42 PM 40.0217 -90.7586 48° Northeast 521 600 31,000  Level Kansas City Center
Tue 08:44:42 PM 40.1197 -90.6167 48° Northeast 525 604 31,000  Level Kansas City Center
Tue 08:45:44 PM 40.2178 -90.4742 48° Northeast 526 605 31,000  Level Kansas City Center
Tue 08:46:46 PM 40.3358 -90.3022 48° Northeast 528 608 31,000 -823 Level Kansas City Center
Tue 08:47:48 PM 40.4342 -90.1575 48° Northeast 530 610 29,300 -1,770 Descending Kansas City Center
Tue 08:48:48 PM 40.5328 -90.0119 48° Northeast 526 605 27,400 -1,686 Descending Kansas City Center
Tue 08:49:49 PM 40.6281 -89.9047 40° Northeast 450 518 25,900 -1,440 Descending Kansas City Center
Tue 08:50:53 PM 40.6992 -89.7900 51° Northeast 426 490 24,400 -2,064 Descending Kansas City Center
Tue 08:51:54 PM 40.7494 -89.6644 62° Northeast 401 461 21,600 -2,876 Descending Kansas City Center
Tue 08:52:54 PM 40.8044 -89.5294 62° Northeast 382 440 18,600 -2,015 Descending Kansas City Center
Tue 08:54:11 PM 40.8806 -89.4075 50° Northeast 364 419 17,000 -691 Descending Chicago Center
Tue 08:55:13 PM 40.9447 -89.3050 50° Northeast 361 415 17,000 -339 Level Chicago Center
Tue 08:56:15 PM 41.0189 -89.1861 50° Northeast 393 452 16,300 -1,210 Descending Chicago Center
Tue 08:57:17 PM 41.0994 -89.0550 51° Northeast 386 444 14,500 -1,548 Descending Chicago Center
Tue 08:58:19 PM 41.1650 -88.9483 51° Northeast 376 433 13,100 -1,403 Descending Chicago Center
Tue 08:59:21 PM 41.2264 -88.8478 51° Northeast 359 413 11,600 -1,452 Descending Chicago Center
Tue 09:00:23 PM 41.2814 -88.7553 52° Northeast 326 375 10,100 -1,355 Descending Chicago Center
Tue 09:01:25 PM 41.3322 -88.6725 51° Northeast 293 337 8,800 -1,258 Descending Chicago Center
Tue 09:02:27 PM 41.3789 -88.5942 52° Northeast 274 315 7,500 -1,344 Descending Chicago Center
Tue 09:03:30 PM 41.4383 -88.4972 51° Northeast 283 326 6,000 -726 Descending Chicago Center
Tue 09:04:31 PM 41.4833 -88.4122 55° Northeast 284 327 6,000  Level Chicago Center
Tue 09:05:34 PM 41.5114 -88.3158 69° East 281 323 6,000 -480 Level Chicago Center
Tue 09:06:36 PM 41.5403 -88.2217 68° East 277 319 5,000 -484 Descending Chicago Center
Tue 09:07:38 PM 41.5686 -88.1331 67° East 262 302 5,000  Level Chicago Center
Tue 09:08:40 PM 41.5789 -88.0489 81° East 240 276 5,000  Level Chicago Center
Tue 09:09:42 PM 41.5836 -87.9447 86° East 234 269 5,000  Level Chicago Center
Tue 09:10:44 PM 41.5872 -87.8575 87° East 235 270 5,000  Level Chicago Center
Tue 09:11:46 PM 41.5914 -87.7697 86° East 236 272 5,000  Level Chicago Center
Tue 09:12:48 PM 41.5931 -87.6822 89° East 237 273 5,000  Level Chicago Center
Tue 09:13:50 PM 41.5603 -87.6089 121° Southeast 236 272 5,000  Level Chicago Center
Tue 09:14:52 PM 41.5383 -87.5342 111° Southeast 234 269 5,000 -194 Level Chicago Center
Tue 09:15:54 PM 41.5939 -87.4897 31° Northeast 215 247 4,600 -484 Descending Chicago Center
Tue 09:16:56 PM 41.6311 -87.5361 317° Northwest 188 216 4,000 -432 Descending Chicago Center
Tue 09:17:59 PM 41.6664 -87.5850 314° West 186 214 3,700 -576 Descending Chicago Center
Tue 09:19:01 PM 41.7006 -87.6342 313° West 184 212 2,800 -823 Descending Chicago Center
Tue 09:20:03 PM 41.7322 -87.6783 314° West 178 205 2,000 -677 Descending Chicago Center
Tue 09:21:05 PM 41.7728 -87.6997 339° North 161 185 1,400 -435 Descending Chicago Center
Tue 09:22:07 PM 41.8050 -87.7156 340° North 154 177 1,100 -242 Descending Chicago Center
Tue 09:23:09 PM 41.7908 -87.7719 251° West 156 180 900 -194 Descending Chicago Center

Login

Don't have an account? Register now (free) for customized features, flight alerts, and more!